St. Catharines Glass Ave

*Note: All times are displayed in the local standard time of the station location.
**Rain - Equipment is designed to accurately record liquid precipitation; under conditions when precipitation is not in liquid form, the data displayed may not properly reflect rainfall values.

Date Max Temp
(°C)
Min Temp
(°C)
Avg Temp
(°C)
Rain (mm) Avg RH (%)
Sun, Dec 10, 2017 -1.0 -2.5 -1.7 0.0 71.4
Sat, Dec 09, 2017 1.6 -2.6 -0.2 0.0 63.4
Fri, Dec 08, 2017 0.5 -4.0 -1.4 0.0 61.8
Thu, Dec 07, 2017 2.1 -2.9 -0.4 0.0 61.6
Wed, Dec 06, 2017 4.4 -0.5 1.9 0.0 52.4
Tue, Dec 05, 2017 11.8 1.1 7.9 4.4 70.2
Mon, Dec 04, 2017 11.6 -3.7 5.1 0.2 74.8
DateTime Avg Temp (°C) Rain (mm) RH (%)
Mon, Dec 11, 2017 02:00 -2.4 0.0 87.0
Mon, Dec 11, 2017 01:00 -1.6 0.0 77.0
Mon, Dec 11, 2017 00:00 -1.7 0.0 72.8
Sun, Dec 10, 2017 23:00 -2.1 0.0 73.3
Sun, Dec 10, 2017 22:00 -2.0 0.0 72.0
Sun, Dec 10, 2017 21:00 -1.9 0.0 70.5
Sun, Dec 10, 2017 20:00 -1.8 0.0 68.8
Sun, Dec 10, 2017 19:00 -1.7 0.0 66.5
Sun, Dec 10, 2017 18:00 -1.3 0.0 62.5
Sun, Dec 10, 2017 17:00 -1.1 0.0 64.0
Sun, Dec 10, 2017 16:00 -1.2 0.0 65.8
Sun, Dec 10, 2017 15:00 -1.1 0.0 67.5
Sun, Dec 10, 2017 14:00 -1.1 0.0 66.0
Sun, Dec 10, 2017 13:00 -1.3 0.0 68.8
Sun, Dec 10, 2017 12:00 -1.3 0.0 64.5
Sun, Dec 10, 2017 11:00 -1.7 0.0 62.8
Sun, Dec 10, 2017 10:00 -2.1 0.0 64.0
Sun, Dec 10, 2017 09:00 -2.4 0.0 65.5
Sun, Dec 10, 2017 08:00 -2.4 0.0 66.3
Sun, Dec 10, 2017 07:00 -2.2 0.0 74.5
Sun, Dec 10, 2017 06:00 -2.1 0.0 77.8
Sun, Dec 10, 2017 05:00 -1.8 0.0 82.8
Sun, Dec 10, 2017 04:00 -2.0 0.0 85.0
Sun, Dec 10, 2017 03:00 -1.9 0.0 84.0
Sun, Dec 10, 2017 02:00 -2.0 0.0 84.8
Sun, Dec 10, 2017 01:00 -1.7 0.0 83.5
Sun, Dec 10, 2017 00:00 -1.9 0.0 85.0
Sat, Dec 09, 2017 23:00 -2.4 0.0 86.5
Sat, Dec 09, 2017 22:00 -2.1 0.0 84.8
Sat, Dec 09, 2017 21:00 -1.2 0.0 77.8
Sat, Dec 09, 2017 20:00 -0.4 0.0 67.5
Sat, Dec 09, 2017 19:00 0.2 0.0 60.0
Sat, Dec 09, 2017 18:00 0.3 0.0 58.0
Sat, Dec 09, 2017 17:00 0.8 0.0 56.0
Sat, Dec 09, 2017 16:00 1.2 0.0 52.8
Sat, Dec 09, 2017 15:00 1.1 0.0 51.3
Sat, Dec 09, 2017 14:00 1.1 0.0 51.5
Sat, Dec 09, 2017 13:00 0.8 0.0 52.5
Sat, Dec 09, 2017 12:00 1.4 0.0 50.8
Sat, Dec 09, 2017 11:00 1.2 0.0 52.3
Sat, Dec 09, 2017 10:00 0.6 0.0 62.5
Sat, Dec 09, 2017 09:00 -0.9 0.0 71.0
Sat, Dec 09, 2017 08:00 -0.4 0.0 72.0
Sat, Dec 09, 2017 07:00 -0.1 0.0 72.5
Sat, Dec 09, 2017 06:00 -0.1 0.0 69.3
Sat, Dec 09, 2017 05:00 -0.6 0.0 59.0
Sat, Dec 09, 2017 04:00 -0.8 0.0 58.5
Sat, Dec 09, 2017 03:00 -0.8 0.0 58.0


asterix Register now to access more data! asterix